Time;durP1;ratioP1;P1;durP2;ratioP2;P2;SDS_P1;SDS_P2;PMS_P1;PMS_P2;Temp;Humidity;BMP_temperature;BMP_pressure;BME280_temperature;BME280_humidity;BME280_pressure;Samples;Min_cycle;Max_cycle;Signal;HPM_P1;HPM_P2
2022/12/27 00:00:30;;;;;;;3.35;0.82;;;19.50;57.80;;;;;;5051712;28;20448;-58
2022/12/27 00:02:55;;;;;;;3.78;0.88;;;19.50;58.00;;;;;;5052704;28;20106;-58
2022/12/27 00:05:21;;;;;;;2.80;0.88;;;19.50;57.90;;;;;;5052400;28;20630;-58
2022/12/27 00:07:46;;;;;;;3.47;1.13;;;19.50;57.90;;;;;;5051961;28;20041;-58
2022/12/27 00:10:12;;;;;;;3.30;1.05;;;19.50;57.90;;;;;;5052627;28;20049;-58
2022/12/27 00:12:38;;;;;;;2.88;1.08;;;19.40;57.80;;;;;;5051370;28;20060;-58
2022/12/27 00:15:03;;;;;;;2.33;0.90;;;19.40;57.80;;;;;;5051721;28;20057;-58
2022/12/27 00:17:29;;;;;;;3.75;0.73;;;19.40;57.80;;;;;;5052170;28;20073;-58
2022/12/27 00:19:55;;;;;;;3.35;0.80;;;19.40;57.70;;;;;;5052324;28;20049;-59
2022/12/27 00:22:20;;;;;;;3.60;0.80;;;19.40;57.70;;;;;;5051503;28;20056;-58
2022/12/27 00:24:46;;;;;;;2.33;0.90;;;19.40;57.70;;;;;;5052460;28;20041;-58
2022/12/27 00:27:12;;;;;;;3.58;1.00;;;19.40;57.60;;;;;;5052376;28;20041;-58
2022/12/27 00:29:37;;;;;;;3.58;1.05;;;19.40;57.60;;;;;;5051809;28;20102;-58
2022/12/27 00:32:03;;;;;;;3.13;0.93;;;19.30;57.50;;;;;;5052172;28;20404;-58
2022/12/27 00:34:28;;;;;;;3.70;0.90;;;19.30;57.50;;;;;;5051418;28;20041;-58
2022/12/27 00:36:54;;;;;;;1.92;1.02;;;19.30;57.50;;;;;;5046913;28;20110;-58
2022/12/27 00:39:20;;;;;;;1.70;0.80;;;19.30;57.50;;;;;;5051150;28;20045;-58
2022/12/27 00:41:45;;;;;;;3.25;0.90;;;19.30;57.50;;;;;;5051660;28;20037;-58
2022/12/27 00:44:11;;;;;;;3.78;0.93;;;19.30;57.40;;;;;;5052278;28;20048;-58
2022/12/27 00:46:36;;;;;;;2.22;0.70;;;19.30;57.50;;;;;;5052318;28;20052;-58
2022/12/27 00:49:02;;;;;;;2.97;0.90;;;19.30;57.40;;;;;;5051462;28;20056;-58
2022/12/27 00:51:27;;;;;;;2.83;1.00;;;19.20;57.30;;;;;;5051617;28;20045;-59
2022/12/27 00:53:53;;;;;;;3.70;1.08;;;19.20;57.30;;;;;;5052235;28;20044;-59
2022/12/27 00:56:29;;;;;;;3.83;1.10;;;19.20;57.30;;;;;;5051420;28;20124;-59
2022/12/27 00:58:56;;;;;;;2.88;0.90;;;19.20;57.20;;;;;;5051896;28;20041;-58
2022/12/27 01:01:23;;;;;;;3.60;1.10;;;19.20;57.30;;;;;;5051780;28;20076;-58
2022/12/27 01:03:48;;;;;;;4.95;1.05;;;19.20;57.20;;;;;;5051379;28;20040;-59
2022/12/27 01:06:16;;;;;;;2.88;0.90;;;19.20;57.20;;;;;;5051395;28;20047;-58
2022/12/27 01:08:41;;;;;;;3.55;0.90;;;19.20;57.20;;;;;;5051988;28;20135;-58
2022/12/27 01:11:07;;;;;;;3.17;0.98;;;19.20;57.20;;;;;;5051157;28;20112;-59
2022/12/27 01:13:33;;;;;;;3.17;1.13;;;19.10;57.10;;;;;;5051627;28;20049;-59
2022/12/27 01:15:58;;;;;;;4.32;1.02;;;19.10;57.10;;;;;;5052157;28;20053;-59
2022/12/27 01:18:24;;;;;;;2.33;0.80;;;19.10;57.00;;;;;;5051112;28;20392;-59
2022/12/27 01:20:49;;;;;;;2.80;0.80;;;19.10;57.10;;;;;;5051682;28;20080;-59
2022/12/27 01:23:15;;;;;;;3.58;0.90;;;19.10;57.00;;;;;;5051510;28;20048;-59
2022/12/27 01:25:41;;;;;;;4.28;0.82;;;19.10;57.00;;;;;;5049812;28;20067;-58
2022/12/27 01:28:06;;;;;;;2.28;0.80;;;19.10;57.00;;;;;;5051824;28;20120;-59
2022/12/27 01:30:32;;;;;;;2.05;0.90;;;19.10;57.00;;;;;;5051443;28;20080;-59
2022/12/27 01:32:57;;;;;;;3.15;0.82;;;19.00;57.00;;;;;;5050808;28;20041;-59
2022/12/27 01:35:23;;;;;;;3.25;0.90;;;19.00;57.00;;;;;;5051135;28;20094;-59
2022/12/27 01:37:48;;;;;;;2.35;0.70;;;19.00;56.90;;;;;;5051256;28;20037;-59
2022/12/27 01:40:14;;;;;;;3.25;0.82;;;19.00;56.90;;;;;;5051219;28;20041;-59
2022/12/27 01:42:51;;;;;;;3.17;0.90;;;19.00;56.90;;;;;;5051528;28;20037;-59
2022/12/27 01:45:25;;;;;;;1.70;0.60;;;19.00;57.00;;;;;;5050613;28;20431;-59
2022/12/27 01:48:10;;;;;;;1.90;0.90;;;19.00;56.90;;;;;;5051667;28;20171;-58
2022/12/27 01:50:46;;;;;;;3.30;1.13;;;19.00;56.90;;;;;;5052694;28;20071;-59
2022/12/27 01:53:11;;;;;;;4.20;1.10;;;19.00;56.90;;;;;;5053313;28;20048;-59
2022/12/27 01:55:46;;;;;;;4.03;0.98;;;19.00;56.80;;;;;;5055113;28;20056;-59
2022/12/27 01:58:14;;;;;;;3.33;0.90;;;18.90;56.70;;;;;;5053294;28;20049;-59
2022/12/27 02:00:40;;;;;;;2.03;0.75;;;19.00;56.80;;;;;;5054021;28;20404;-59
2022/12/27 02:03:05;;;;;;;3.28;0.85;;;19.00;56.80;;;;;;5037371;28;20053;-59
2022/12/27 02:05:31;;;;;;;3.92;1.23;;;19.00;56.80;;;;;;5053723;28;20037;-59
2022/12/27 02:08:21;;;;;;;2.90;0.90;;;19.00;56.80;;;;;;5053046;28;20052;-59
2022/12/27 02:10:46;;;;;;;2.67;0.90;;;19.00;56.70;;;;;;5039474;28;20102;-59
2022/12/27 02:13:12;;;;;;;2.03;0.85;;;19.00;56.70;;;;;;5053684;28;20053;-59
2022/12/27 02:15:37;;;;;;;1.52;0.70;;;19.00;56.70;;;;;;5036837;28;20045;-59
2022/12/27 02:18:03;;;;;;;2.75;0.80;;;18.90;56.60;;;;;;5053703;28;20033;-59
2022/12/27 02:20:31;;;;;;;2.03;0.80;;;19.00;56.70;;;;;;5052704;28;20480;-59
2022/12/27 02:26:25;;;;;;;2.58;1.00;;;19.00;56.60;;;;;;5054776;28;20045;-58
2022/12/27 02:29:18;;;;;;;3.78;1.05;;;19.00;56.50;;;;;;5054052;28;20477;-59
2022/12/27 02:31:52;;;;;;;2.75;1.10;;;18.90;56.40;;;;;;5054771;28;20049;-58
2022/12/27 02:34:23;;;;;;;3.17;1.15;;;19.00;56.50;;;;;;5052030;28;20912;-59
2022/12/27 02:36:48;;;;;;;3.60;0.90;;;19.00;56.50;;;;;;5054458;28;20044;-58
2022/12/27 02:39:14;;;;;;;2.53;0.75;;;19.00;56.40;;;;;;5053176;28;20047;-59
2022/12/27 02:53:04;;;;;;;2.83;0.80;;;18.90;56.50;;;;;;5054156;28;20053;-59
2022/12/27 02:57:07;;;;;;;1.88;0.52;;;19.00;56.50;;;;;;5053308;28;20048;-59
2022/12/27 02:59:08;;;;;;;2.65;0.90;;;19.00;56.50;;;;;;5053501;28;20053;-59
2022/12/27 03:05:14;;;;;;;2.88;0.70;;;19.00;57.20;;;;;;5052499;28;20489;-59
2022/12/27 03:07:42;;;;;;;3.28;0.80;;;18.90;56.40;;;;;;5052912;28;20103;-59
2022/12/27 03:16:17;;;;;;;3.17;0.73;;;18.90;56.40;;;;;;5071130;28;20052;-59
2022/12/27 03:18:54;;;;;;;4.10;0.88;;;19.00;56.40;;;;;;5073457;28;20476;-59
2022/12/27 03:27:18;;;;;;;2.08;0.68;;;19.00;56.30;;;;;;5072354;28;20048;-59
2022/12/27 03:35:16;;;;;;;2.95;0.82;;;19.00;56.30;;;;;;5072251;28;20044;-59
2022/12/27 03:38:02;;;;;;;3.10;0.80;;;19.00;56.30;;;;;;5071236;28;20487;-59
2022/12/27 03:43:31;;;;;;;2.38;0.60;;;19.00;56.20;;;;;;5072209;28;20048;-59
2022/12/27 03:46:32;;;;;;;2.10;0.77;;;19.10;56.20;;;;;;5072407;28;20048;-59
2022/12/27 03:49:09;;;;;;;2.95;0.98;;;19.10;56.20;;;;;;5073116;28;20044;-59
2022/12/27 03:52:02;;;;;;;2.72;0.77;;;19.10;56.10;;;;;;5071999;28;20048;-59
2022/12/27 03:54:33;;;;;;;1.70;0.70;;;19.10;56.20;;;;;;5048627;28;20493;-59
2022/12/27 03:57:05;;;;;;;2.90;0.77;;;19.10;56.00;;;;;;5071182;28;20495;-59
2022/12/27 03:59:30;;;;;;;2.38;0.90;;;19.10;56.10;;;;;;5070712;28;20048;-59
2022/12/27 04:01:57;;;;;;;4.25;1.15;;;19.10;56.00;;;;;;5071746;28;20049;-59
2022/12/27 04:04:23;;;;;;;2.25;0.60;;;19.20;56.00;;;;;;5071389;28;20119;-59
2022/12/27 04:06:48;;;;;;;1.95;0.90;;;19.10;56.00;;;;;;5071830;28;20116;-59
2022/12/27 04:36:37;;;;;;;3.00;0.73;;;19.30;55.80;;;;;;5072425;28;20064;-58
2022/12/27 04:39:02;;;;;;;2.33;0.80;;;19.30;55.80;;;;;;5072452;28;20040;-59
2022/12/27 04:55:29;;;;;;;2.83;0.80;;;19.40;56.40;;;;;;5071342;28;20044;-59
2022/12/27 04:57:55;;;;;;;2.55;0.60;;;19.40;55.70;;;;;;5072460;28;20140;-58
2022/12/27 05:03:09;;;;;;;2.42;0.65;;;19.40;55.60;;;;;;5044242;28;20053;-58
2022/12/27 05:05:34;;;;;;;2.15;0.60;;;19.40;55.60;;;;;;5049123;28;20247;-59
2022/12/27 05:16:13;;;;;;;1.80;0.60;;;19.50;55.60;;;;;;5051141;28;20053;-59
2022/12/27 05:18:38;;;;;;;2.28;0.60;;;19.50;55.50;;;;;;5051601;28;20083;-59
2022/12/27 05:21:04;;;;;;;1.17;0.60;;;19.50;55.50;;;;;;5051896;28;20076;-59
2022/12/27 05:26:21;;;;;;;2.40;0.60;;;19.50;55.50;;;;;;5054010;28;20049;-58
2022/12/27 05:28:47;;;;;;;3.35;0.80;;;19.50;55.40;;;;;;5055779;28;20110;-58
2022/12/27 05:31:13;;;;;;;3.08;0.60;;;19.50;55.30;;;;;;5054970;28;20484;-59
2022/12/27 05:33:38;;;;;;;1.90;0.60;;;19.60;55.40;;;;;;5055490;28;20045;-58
2022/12/27 05:36:04;;;;;;;2.45;0.70;;;19.60;56.10;;;;;;5069684;28;20580;-58
2022/12/27 05:38:30;;;;;;;4.45;0.60;;;19.60;55.40;;;;;;5074516;28;20036;-59
2022/12/27 05:40:59;;;;;;;1.95;0.80;;;19.60;55.40;;;;;;5075747;28;20419;-59
2022/12/27 05:43:25;;;;;;;2.00;0.57;;;19.60;55.40;;;;;;5075168;28;20037;-59
2022/12/27 05:45:51;;;;;;;1.65;0.47;;;19.60;55.40;;;;;;5074949;28;20067;-59
2022/12/27 05:48:16;;;;;;;1.63;0.50;;;19.60;55.30;;;;;;5075332;28;20032;-59
2022/12/27 05:50:42;;;;;;;3.25;0.60;;;19.60;55.30;;;;;;5075353;28;20400;-59
2022/12/27 05:53:07;;;;;;;2.58;0.55;;;19.60;55.30;;;;;;5074732;28;20123;-59
2022/12/27 05:55:33;;;;;;;2.15;0.50;;;19.60;55.30;;;;;;5074831;28;20045;-59
2022/12/27 05:57:58;;;;;;;2.00;0.50;;;19.60;55.30;;;;;;5074725;28;20044;-59
2022/12/27 06:00:24;;;;;;;2.40;0.70;;;19.70;55.40;;;;;;5074781;28;20041;-59
2022/12/27 06:02:50;;;;;;;2.78;0.55;;;19.70;55.30;;;;;;5075142;28;20070;-59
2022/12/27 06:05:16;;;;;;;2.63;0.60;;;19.70;55.30;;;;;;5074052;28;20160;-59
2022/12/27 06:07:41;;;;;;;2.25;0.60;;;19.70;55.20;;;;;;5073638;28;20068;-59
2022/12/27 06:10:08;;;;;;;2.17;0.50;;;19.70;55.20;;;;;;5075204;28;20137;-59
2022/12/27 06:12:33;;;;;;;2.83;0.60;;;19.70;55.20;;;;;;5073933;28;20052;-59
2022/12/27 06:14:59;;;;;;;2.67;0.50;;;19.70;55.20;;;;;;5074673;28;20048;-59
2022/12/27 06:17:24;;;;;;;1.65;0.55;;;19.70;55.10;;;;;;5074561;28;20041;-59
2022/12/27 06:19:50;;;;;;;1.60;0.50;;;19.70;55.10;;;;;;5073960;28;20467;-59
2022/12/27 06:22:15;;;;;;;2.60;0.55;;;19.70;55.20;;;;;;5074493;28;20033;-58
2022/12/27 06:24:41;;;;;;;2.67;0.63;;;19.80;55.20;;;;;;5074765;28;20385;-58
2022/12/27 06:27:07;;;;;;;2.17;0.70;;;19.80;55.10;;;;;;5073811;28;20102;-58
2022/12/27 06:29:33;;;;;;;2.58;0.88;;;19.80;55.10;;;;;;5074522;28;20554;-58
2022/12/27 06:31:58;;;;;;;1.65;0.70;;;19.80;55.10;;;;;;5074564;28;20048;-58
2022/12/27 06:34:24;;;;;;;3.40;0.60;;;19.80;55.10;;;;;;5072971;28;20044;-58
2022/12/27 06:36:50;;;;;;;1.63;0.60;;;19.80;55.00;;;;;;5073229;28;20037;-58
2022/12/27 06:39:16;;;;;;;1.33;0.50;;;19.80;55.00;;;;;;5073954;28;20400;-58
2022/12/27 06:41:42;;;;;;;1.95;0.50;;;19.80;55.00;;;;;;5073621;28;20040;-58
2022/12/27 06:44:07;;;;;;;2.22;0.52;;;19.80;55.00;;;;;;5074483;28;20096;-58
2022/12/27 06:46:33;;;;;;;1.48;0.35;;;19.80;54.90;;;;;;5073733;28;20043;-58
2022/12/27 06:48:59;;;;;;;1.50;0.45;;;19.80;55.60;;;;;;5064809;28;20041;-59
2022/12/27 06:51:24;;;;;;;2.42;0.50;;;19.80;54.90;;;;;;5053579;28;20048;-59
2022/12/27 06:53:50;;;;;;;1.30;0.40;;;19.80;54.90;;;;;;5054441;28;20059;-59
2022/12/27 06:56:17;;;;;;;3.15;0.60;;;19.80;54.80;;;;;;5053073;28;20578;-59
2022/12/27 06:58:44;;;;;;;3.88;0.85;;;19.80;54.90;;;;;;5054183;28;20069;-59
2022/12/27 07:01:17;;;;;;;0.93;0.40;;;19.80;54.80;;;;;;5053781;28;20493;-59
2022/12/27 07:03:42;;;;;;;3.25;0.60;;;19.90;54.90;;;;;;5053914;28;20037;-59
2022/12/27 07:06:10;;;;;;;1.10;0.40;;;19.90;54.90;;;;;;5053672;28;20107;-60
2022/12/27 07:08:36;;;;;;;3.67;0.70;;;19.90;54.90;;;;;;5053055;28;20152;-60
2022/12/27 07:11:02;;;;;;;2.30;0.50;;;19.90;55.00;;;;;;5053670;28;20124;-59
2022/12/27 07:13:28;;;;;;;2.65;0.60;;;19.90;54.80;;;;;;5053463;28;20603;-59
2022/12/27 07:15:54;;;;;;;6.30;0.75;;;19.90;54.70;;;;;;5053063;28;20172;-59
2022/12/27 07:18:19;;;;;;;3.63;0.75;;;19.90;54.50;;;;;;5053099;28;20206;-59
2022/12/27 07:20:45;;;;;;;3.30;0.80;;;20.00;54.50;;;;;;5053595;28;20064;-59
2022/12/27 07:23:12;;;;;;;3.28;0.75;;;20.00;54.50;;;;;;5052236;28;20048;-59
2022/12/27 07:25:37;;;;;;;6.25;1.00;;;20.00;54.50;;;;;;5053829;28;20091;-59
2022/12/27 07:28:03;;;;;;;5.88;0.90;;;20.00;54.50;;;;;;5053271;28;20041;-59
2022/12/27 07:30:28;;;;;;;8.60;0.80;;;20.00;54.50;;;;;;5052686;28;20056;-60
2022/12/27 07:32:54;;;;;;;3.47;1.00;;;20.10;54.60;;;;;;5053135;28;20091;-59
2022/12/27 07:35:19;;;;;;;4.90;1.00;;;20.10;54.70;;;;;;5052990;28;20036;-60
2022/12/27 07:37:45;;;;;;;4.55;1.10;;;20.10;54.80;;;;;;5052201;28;20047;-59
2022/12/27 07:40:11;;;;;;;3.28;1.20;;;20.10;54.90;;;;;;5052576;28;20127;-59
2022/12/27 07:42:36;;;;;;;6.03;1.23;;;20.20;55.00;;;;;;5053347;28;20496;-59
2022/12/27 07:45:02;;;;;;;4.82;1.20;;;20.20;55.10;;;;;;5052385;28;20131;-60
2022/12/27 07:47:27;;;;;;;6.82;1.50;;;20.20;55.20;;;;;;5052830;28;20045;-60
2022/12/27 07:49:53;;;;;;;5.75;1.25;;;20.20;55.20;;;;;;5052421;28;20041;-59
2022/12/27 07:52:18;;;;;;;9.63;1.10;;;20.30;55.20;;;;;;5051997;28;20140;-59
2022/12/27 07:54:44;;;;;;;5.05;1.75;;;20.30;55.30;;;;;;5053113;28;20048;-57
2022/12/27 07:57:09;;;;;;;6.35;1.40;;;20.30;55.30;;;;;;5052840;28;20044;-59
2022/12/27 07:59:35;;;;;;;5.50;1.40;;;20.30;55.30;;;;;;5051922;28;20064;-59
2022/12/27 08:02:04;;;;;;;6.07;1.80;;;20.40;55.20;;;;;;5052845;28;20430;-59
2022/12/27 08:04:30;;;;;;;6.18;1.25;;;20.40;55.10;;;;;;5052525;28;20060;-60
2022/12/27 08:06:58;;;;;;;4.63;1.00;;;20.30;54.90;;;;;;5051660;28;20453;-59
2022/12/27 08:09:27;;;;;;;3.92;1.20;;;20.40;55.00;;;;;;5050962;28;20076;-60
2022/12/27 08:11:53;;;;;;;5.68;1.23;;;20.40;55.20;;;;;;5050802;28;20048;-59
2022/12/27 08:14:18;;;;;;;4.10;1.13;;;20.40;55.20;;;;;;5051809;28;20068;-59
2022/12/27 08:16:44;;;;;;;4.03;1.05;;;20.40;55.30;;;;;;5051951;28;20091;-59
2022/12/27 08:19:09;;;;;;;3.83;1.40;;;20.40;55.30;;;;;;5050284;28;20045;-59
2022/12/27 08:21:35;;;;;;;3.83;0.93;;;20.40;55.30;;;;;;5063928;28;20040;-59
2022/12/27 08:24:00;;;;;;;8.82;1.27;;;20.40;55.30;;;;;;5072581;28;20045;-60
2022/12/27 08:26:26;;;;;;;5.32;1.05;;;20.40;55.30;;;;;;5071507;28;20421;-60
2022/12/27 08:28:51;;;;;;;2.80;0.77;;;20.50;55.40;;;;;;5072302;28;20041;-59
2022/12/27 08:31:17;;;;;;;4.43;1.20;;;20.50;55.40;;;;;;5071894;28;20124;-59
2022/12/27 08:33:43;;;;;;;3.53;1.13;;;20.50;55.40;;;;;;5071548;28;20075;-59
2022/12/27 08:36:10;;;;;;;3.40;0.93;;;20.50;55.40;;;;;;5070588;28;20040;-60
2022/12/27 08:38:35;;;;;;;3.35;1.27;;;20.50;55.40;;;;;;5072405;28;20112;-60
2022/12/27 08:41:01;;;;;;;2.83;0.88;;;20.50;55.40;;;;;;5071392;28;20202;-59
2022/12/27 08:43:28;;;;;;;3.53;1.10;;;20.50;55.40;;;;;;5071725;28;20044;-60
2022/12/27 08:45:59;;;;;;;4.80;1.15;;;20.50;55.40;;;;;;5071895;28;20447;-60
2022/12/27 08:48:24;;;;;;;6.25;1.20;;;20.50;55.50;;;;;;5071017;28;20492;-60
2022/12/27 08:50:50;;;;;;;3.30;1.17;;;20.50;55.50;;;;;;5071769;28;20046;-60
2022/12/27 08:53:15;;;;;;;4.90;1.23;;;20.50;55.60;;;;;;5071791;28;20563;-60
2022/12/27 08:55:41;;;;;;;2.08;0.90;;;20.50;55.50;;;;;;5071291;28;20433;-59
2022/12/27 08:58:06;;;;;;;3.25;1.10;;;20.60;55.60;;;;;;5071998;28;20049;-60
2022/12/27 09:00:32;;;;;;;4.20;1.08;;;20.60;55.70;;;;;;5073013;28;20070;-60
2022/12/27 09:02:57;;;;;;;3.78;1.15;;;20.60;55.60;;;;;;5075087;28;20032;-59
2022/12/27 09:05:24;;;;;;;3.13;0.98;;;20.60;55.70;;;;;;5075411;28;20404;-59
2022/12/27 09:07:49;;;;;;;3.47;0.93;;;20.60;55.60;;;;;;5076128;28;20107;-59
2022/12/27 09:10:15;;;;;;;4.10;1.17;;;20.60;55.70;;;;;;5075444;28;20543;-59
2022/12/27 09:12:41;;;;;;;3.28;1.00;;;20.60;55.70;;;;;;5076043;28;20041;-61
2022/12/27 09:15:07;;;;;;;4.45;1.08;;;20.60;55.70;;;;;;5074760;28;20083;-59
2022/12/27 09:17:33;;;;;;;2.58;0.95;;;20.60;55.60;;;;;;5065458;28;20119;-60
2022/12/27 09:19:58;;;;;;;3.45;1.10;;;20.60;55.70;;;;;;5055408;28;20164;-59
2022/12/27 09:22:24;;;;;;;2.97;0.90;;;20.60;55.60;;;;;;5050505;28;20465;-59
2022/12/27 09:24:49;;;;;;;4.63;1.25;;;20.60;55.60;;;;;;5040066;28;20420;-59
2022/12/27 09:27:15;;;;;;;3.67;1.00;;;20.60;55.60;;;;;;5038865;28;20041;-59
2022/12/27 09:29:40;;;;;;;2.97;0.90;;;20.60;55.60;;;;;;5040202;28;20048;-59
2022/12/27 09:32:06;;;;;;;4.30;0.98;;;20.60;55.60;;;;;;5041061;28;20121;-59
2022/12/27 09:34:32;;;;;;;3.42;0.85;;;20.60;55.60;;;;;;5041506;28;20045;-60
2022/12/27 09:36:57;;;;;;;3.17;1.10;;;20.60;55.50;;;;;;5033868;28;20037;-60
2022/12/27 09:39:23;;;;;;;2.10;0.80;;;20.60;55.50;;;;;;5060312;28;20132;-59
2022/12/27 09:41:48;;;;;;;4.40;1.08;;;20.50;55.60;;;;;;5055277;28;20033;-60
2022/12/27 09:44:29;;;;;;;2.67;0.82;;;20.50;55.60;;;;;;5053979;28;20091;-60
2022/12/27 09:47:19;;;;;;;2.15;0.82;;;20.50;55.40;;;;;;5070112;28;20048;-60
2022/12/27 09:49:49;;;;;;;2.92;0.90;;;20.50;55.40;;;;;;5074426;28;20040;-60
2022/12/27 09:52:33;;;;;;;3.30;0.93;;;20.50;55.50;;;;;;5072938;28;20066;-60
2022/12/27 09:55:01;;;;;;;1.95;0.75;;;20.50;55.20;;;;;;5052360;28;20044;-60
2022/12/27 09:57:33;;;;;;;4.63;1.05;;;20.50;55.30;;;;;;5053082;28;20052;-59
2022/12/27 09:59:58;;;;;;;5.70;1.33;;;20.50;55.40;;;;;;5053726;28;20055;-59
2022/12/27 10:02:25;;;;;;;3.20;1.10;;;20.50;55.40;;;;;;5036722;28;20041;-59
2022/12/27 10:04:51;;;;;;;2.60;1.05;;;20.50;55.40;;;;;;5050347;28;20059;-59
2022/12/27 10:07:23;;;;;;;4.10;0.95;;;20.50;55.40;;;;;;5053245;28;20124;-59
2022/12/27 10:10:11;;;;;;;4.10;1.10;;;20.50;55.40;;;;;;5053670;28;20048;-59
2022/12/27 10:12:43;;;;;;;5.40;1.10;;;20.50;55.30;;;;;;5042371;28;20063;-59
2022/12/27 10:15:15;;;;;;;2.53;0.82;;;20.50;55.40;;;;;;5055586;28;20045;-59
2022/12/27 10:17:50;;;;;;;4.63;1.10;;;20.50;55.30;;;;;;5055449;28;20075;-58
2022/12/27 10:20:29;;;;;;;3.55;0.93;;;20.40;55.30;;;;;;5058745;28;20048;-59
2022/12/27 10:23:03;;;;;;;3.95;1.00;;;20.40;55.40;;;;;;5051413;28;20037;-59
2022/12/27 10:25:29;;;;;;;3.42;0.80;;;20.40;55.60;;;;;;5036217;28;20080;-59
2022/12/27 10:27:58;;;;;;;4.53;1.00;;;20.40;55.60;;;;;;5054613;28;20102;-59
2022/12/27 10:30:24;;;;;;;4.05;1.08;;;20.40;55.60;;;;;;5053330;28;20507;-59
2022/12/27 10:32:49;;;;;;;2.92;0.82;;;20.40;55.60;;;;;;5052654;28;20127;-59
2022/12/27 10:35:17;;;;;;;4.50;0.95;;;20.40;55.70;;;;;;5053340;28;20469;-59
2022/12/27 10:37:43;;;;;;;4.82;1.10;;;20.40;55.80;;;;;;5054796;28;20064;-59
2022/12/27 10:40:20;;;;;;;5.80;0.93;;;20.40;55.90;;;;;;5053718;28;20574;-58
2022/12/27 10:43:16;;;;;;;4.18;1.10;;;20.40;55.90;;;;;;5053580;28;20138;-58
2022/12/27 10:45:41;;;;;;;3.83;1.00;;;20.40;56.60;;;;;;5053567;28;20049;-58
2022/12/27 10:48:25;;;;;;;4.22;0.90;;;20.40;56.00;;;;;;5053751;28;20060;-58
2022/12/27 10:50:59;;;;;;;3.30;0.93;;;20.40;56.10;;;;;;5052958;28;20045;-58
2022/12/27 10:53:37;;;;;;;2.50;0.88;;;20.40;56.10;;;;;;5051934;28;20060;-59
2022/12/27 10:56:09;;;;;;;4.45;1.02;;;20.40;56.00;;;;;;5054706;28;20045;-58
2022/12/27 10:58:46;;;;;;;3.78;1.05;;;20.40;56.10;;;;;;5054606;28;20037;-59
2022/12/27 11:01:25;;;;;;;3.03;0.80;;;20.40;56.20;;;;;;5053429;28;20045;-57
2022/12/27 11:03:51;;;;;;;4.57;0.80;;;20.50;56.20;;;;;;5054441;28;20044;-58
2022/12/27 11:06:20;;;;;;;2.55;0.80;;;20.50;56.30;;;;;;5053731;28;20373;-58
2022/12/27 11:08:45;;;;;;;;;;;20.50;56.30;;;;;;5053988;28;20045;-58
2022/12/27 11:11:18;;;;;;;1.98;0.80;;;20.40;56.20;;;;;;5053881;28;19928;-58
2022/12/27 11:13:44;;;;;;;4.13;0.80;;;20.50;56.30;;;;;;5053705;28;20084;-59
2022/12/27 11:16:14;;;;;;;4.70;1.00;;;20.50;56.20;;;;;;5053061;28;20073;-58
2022/12/27 11:18:44;;;;;;;3.05;0.98;;;20.50;56.10;;;;;;5052677;28;20492;-58
2022/12/27 11:21:11;;;;;;;2.70;0.70;;;20.50;56.10;;;;;;5052734;28;20041;-59
2022/12/27 11:23:42;;;;;;;5.18;1.13;;;20.50;56.00;;;;;;5051160;28;20447;-59
2022/12/27 11:26:35;;;;;;;3.92;1.20;;;20.50;56.00;;;;;;5052638;28;20488;-59
2022/12/27 11:29:01;;;;;;;5.53;1.10;;;20.50;55.90;;;;;;5051867;28;20045;-59
2022/12/27 11:31:30;;;;;;;4.43;1.02;;;20.50;55.90;;;;;;5053679;28;20045;-58
2022/12/27 11:34:00;;;;;;;5.68;1.17;;;20.40;55.80;;;;;;5053948;28;20095;-58
2022/12/27 11:36:39;;;;;;;5.82;1.05;;;20.40;55.80;;;;;;5052854;28;20033;-58
2022/12/27 11:39:06;;;;;;;4.28;1.10;;;20.40;55.70;;;;;;5052355;28;20041;-58
2022/12/27 11:41:33;;;;;;;3.53;1.08;;;20.40;55.70;;;;;;5053381;28;20065;-58
2022/12/27 11:44:16;;;;;;;2.58;0.88;;;20.40;55.70;;;;;;5051789;28;20048;-59
2022/12/27 11:46:54;;;;;;;3.28;1.00;;;20.40;55.60;;;;;;5053838;28;20041;-59
2022/12/27 11:49:21;;;;;;;4.43;1.13;;;20.40;55.60;;;;;;5053324;28;20043;-60
2022/12/27 11:52:18;;;;;;;3.80;1.33;;;20.40;55.60;;;;;;5051975;28;20041;-59
2022/12/27 11:54:54;;;;;;;6.20;1.45;;;20.40;56.00;;;;;;5048324;28;20059;-58
2022/12/27 11:57:56;;;;;;;6.05;1.20;;;20.40;56.10;;;;;;5067572;28;20090;-58
2022/12/27 12:00:22;;;;;;;5.63;1.33;;;20.40;56.20;;;;;;5048389;28;20061;-59
2022/12/27 12:03:29;;;;;;;5.38;1.50;;;20.40;56.40;;;;;;5058223;28;20059;-59
2022/12/27 12:06:30;;;;;;;6.30;1.60;;;20.30;56.50;;;;;;5049715;28;20052;-57
2022/12/27 12:09:12;;;;;;;3.88;1.25;;;20.30;56.40;;;;;;5051071;28;20039;-58
2022/12/27 12:11:52;;;;;;;8.00;1.85;;;20.30;56.40;;;;;;5051832;28;20059;-58
2022/12/27 12:14:32;;;;;;;8.05;1.88;;;20.30;56.40;;;;;;5036068;28;20068;-58
2022/12/27 12:17:07;;;;;;;4.40;1.30;;;20.30;56.50;;;;;;5055844;28;20106;-58
2022/12/27 12:19:42;;;;;;;3.67;1.25;;;20.30;56.60;;;;;;5053962;28;20049;-58
2022/12/27 12:22:17;;;;;;;7.32;1.50;;;20.30;56.70;;;;;;5053566;28;20045;-58
2022/12/27 12:25:07;;;;;;;6.38;1.60;;;20.30;56.80;;;;;;5052337;28;20102;-58
2022/12/27 12:27:36;;;;;;;4.72;1.40;;;20.20;56.80;;;;;;5050564;28;20052;-58
2022/12/27 12:30:30;;;;;;;6.13;1.77;;;20.20;56.80;;;;;;5034708;28;20124;-58
2022/12/27 12:33:01;;;;;;;4.13;1.52;;;20.20;56.80;;;;;;5051979;28;20041;-59
2022/12/27 12:35:49;;;;;;;5.70;1.83;;;20.20;56.80;;;;;;5034983;28;20484;-58
2022/12/27 12:38:27;;;;;;;4.43;1.58;;;20.20;56.70;;;;;;5051235;28;20049;-58
2022/12/27 12:41:20;;;;;;;4.40;1.70;;;20.20;56.70;;;;;;5051722;28;20052;-58
2022/12/27 12:43:49;;;;;;;6.30;2.05;;;20.20;56.60;;;;;;5051269;28;20057;-58
2022/12/27 12:46:32;;;;;;;4.15;1.30;;;20.20;56.60;;;;;;5050152;28;20041;-59
2022/12/27 12:49:04;;;;;;;4.30;1.25;;;20.20;56.70;;;;;;5052698;28;20049;-58
2022/12/27 12:51:43;;;;;;;4.88;1.60;;;20.20;56.70;;;;;;5052090;28;20538;-58
2022/12/27 12:54:34;;;;;;;5.47;1.10;;;20.20;56.80;;;;;;5050166;28;20549;-58
2022/12/27 12:57:14;;;;;;;6.45;1.20;;;20.20;56.80;;;;;;5051084;28;20048;-58
2022/12/27 13:00:01;;;;;;;5.40;1.33;;;20.20;56.80;;;;;;5052356;28;20458;-58
2022/12/27 13:02:57;;;;;;;5.65;1.25;;;20.20;56.80;;;;;;5052205;28;20044;-58
2022/12/27 13:05:35;;;;;;;3.97;1.33;;;20.20;56.90;;;;;;5052057;28;20052;-59
2022/12/27 13:08:07;;;;;;;5.93;1.60;;;20.20;56.80;;;;;;5035570;28;20071;-59
2022/12/27 13:10:44;;;;;;;4.47;1.25;;;20.20;56.80;;;;;;5052080;28;20103;-59
2022/12/27 13:13:22;;;;;;;6.35;1.25;;;20.20;56.80;;;;;;5050446;28;20052;-60
2022/12/27 13:16:11;;;;;;;4.63;1.10;;;20.20;56.80;;;;;;5051667;28;20056;-59
2022/12/27 13:19:01;;;;;;;6.05;1.60;;;20.10;56.70;;;;;;5051005;28;20040;-59
2022/12/27 13:21:57;;;;;;;4.07;1.05;;;20.10;56.80;;;;;;5051055;28;20049;-60
2022/12/27 13:24:49;;;;;;;3.83;1.35;;;20.10;56.70;;;;;;5025992;28;20111;-59
2022/12/27 13:27:35;;;;;;;4.70;1.58;;;20.20;56.80;;;;;;5052082;28;20052;-60
2022/12/27 13:30:02;;;;;;;4.82;1.35;;;20.10;56.70;;;;;;5050347;28;20045;-60
2022/12/27 13:32:44;;;;;;;3.83;1.07;;;20.10;56.80;;;;;;5050841;28;20068;-60
2022/12/27 13:35:25;;;;;;;4.15;1.20;;;20.20;56.90;;;;;;5034210;28;20386;-60
2022/12/27 13:38:13;;;;;;;3.65;1.25;;;20.10;56.80;;;;;;5051914;28;20102;-60
2022/12/27 13:41:01;;;;;;;2.30;0.90;;;20.10;56.80;;;;;;5052178;28;20052;-60
2022/12/27 13:44:11;;;;;;;4.85;1.20;;;20.10;56.90;;;;;;5051345;28;20167;-60
2022/12/27 13:46:40;;;;;;;3.22;1.02;;;20.10;56.80;;;;;;5051561;28;20057;-60
2022/12/27 13:49:42;;;;;;;4.03;1.15;;;20.10;56.90;;;;;;5056072;28;20049;-60
2022/12/27 13:52:14;;;;;;;6.80;1.30;;;20.10;56.90;;;;;;5053881;28;20055;-60
2022/12/27 13:54:49;;;;;;;4.50;1.40;;;20.10;56.80;;;;;;5052577;28;20052;-62
2022/12/27 13:57:53;;;;;;;3.08;1.10;;;20.10;56.20;;;;;;5054280;28;20087;-59
2022/12/27 14:00:19;;;;;;;3.88;1.23;;;20.20;56.00;;;;;;5052249;28;20132;-59
2022/12/27 14:02:57;;;;;;;4.20;1.40;;;20.10;56.10;;;;;;5055087;28;20489;-58
2022/12/27 14:05:40;;;;;;;4.10;1.30;;;20.10;56.00;;;;;;5054143;28;20049;-57
2022/12/27 14:08:36;;;;;;;4.70;1.42;;;20.10;55.90;;;;;;5055119;28;20062;-58
2022/12/27 14:11:02;;;;;;;3.72;1.20;;;20.10;55.90;;;;;;5054925;28;20051;-57
2022/12/27 14:13:34;;;;;;;4.55;1.42;;;20.10;56.00;;;;;;5054779;28;20049;-57
2022/12/27 14:16:19;;;;;;;4.63;1.40;;;20.10;56.00;;;;;;5058978;28;20484;-58
2022/12/27 14:19:10;;;;;;;3.33;1.42;;;20.10;56.20;;;;;;5054433;28;20117;-58
2022/12/27 14:21:35;;;;;;;5.15;1.40;;;20.10;56.30;;;;;;5055234;28;20041;-58
2022/12/27 14:24:15;;;;;;;3.80;1.58;;;20.10;56.20;;;;;;5060674;28;20120;-58
2022/12/27 14:27:05;;;;;;;3.90;1.05;;;20.20;56.30;;;;;;5054277;28;20045;-59
2022/12/27 14:30:08;;;;;;;4.55;1.10;;;20.20;56.40;;;;;;5065467;28;20467;-58
2022/12/27 14:32:48;;;;;;;3.17;1.00;;;20.20;56.50;;;;;;5057056;28;20060;-58
2022/12/27 14:35:40;;;;;;;3.92;1.13;;;20.20;56.50;;;;;;5062005;28;20041;-58
2022/12/27 14:38:21;;;;;;;3.13;1.17;;;20.20;56.50;;;;;;5059773;28;20079;-58
2022/12/27 14:41:26;;;;;;;2.05;1.00;;;20.20;56.60;;;;;;5062373;28;20083;-58
2022/12/27 14:44:17;;;;;;;3.92;1.30;;;20.20;56.60;;;;;;5053050;28;20049;-58